首页
METAR-TAF:

METAR-TAF

机场 :

大马士革, 叙利亚

大马士革国际机场

纬度: 33-25N, 经度: 036-31E, 海拔: 608米

当前天气观测

该预报发布于54分钟前的06:00 UTC
风速15节,风向东转东北
温度 21°C
湿度 23%
气压 1015 hPa
能见度10公里或以上
少量云层高于3000英尺
散云层高于10000英尺

METAR: OSDI 250600Z 06015KT 9999 FEW030 SCT100 21/M01 Q1015

时间: 09:54 (06:54 UTC)

预报

该预报发布于2小时和54分钟前的04:00 UTC
预报有效从25日的 06点(UTC)到 26日的 12点(UTC)
风速10节,风向西南
能见度10公里或以上
少量云层高于3000英尺
散云层高于10000英尺
短暂存在
从 25日的 12点(UTC)到 26日的 12点(UTC)
风速15节,风向西,有时为25节阵风
能見度: 6000
少量云层高于2500英尺, 积雨云.
多云层高于3000英尺
阴天层高于10000英尺
阵雨

TAF: OSDI 250400Z 2506/2612 22010KT 9999 FEW030 SCT100 TEMPO 2512/2612 28015G25KT 6000 SHRA FEW025CB BKN030 OVC100

超过4000个机场的气象观测和天气预报(METAR&TAF报告)。

可查询的气象台以黄色和红色小点在地图上表示。

将鼠标移到小点上方,可查看气象台名称。

然后点击查看天气观测和预报。

如需切换地图:点击带黑十字的绿色按钮放大地图;点击带横线的绿色按钮缩小地图;或者点击绿色箭头查看邻近地区的地图。


METAR-TAF: